Time;durP1;ratioP1;P1;durP2;ratioP2;P2;SDS_P1;SDS_P2;PMS_P1;PMS_P2;Temp;Humidity;BMP_temperature;BMP_pressure;BME280_temperature;BME280_humidity;BME280_pressure;Samples;Min_cycle;Max_cycle;Signal;HPM_P1;HPM_P2
2022/03/29 00:00:36;;;;;;;23.48;12.43;;;;;;;;;;4936606;29;20251;-63
2022/03/29 00:03:02;;;;;;;26.33;13.05;;;;;;;;;;4936844;29;20637;-62
2022/03/29 00:05:28;;;;;;;25.95;12.48;;;;;;;;;;4936651;29;20165;-62
2022/03/29 00:07:54;;;;;;;26.65;13.45;;;;;;;;;;4936729;29;20180;-61
2022/03/29 00:10:20;;;;;;;24.45;13.82;;;;;;;;;;4936797;29;20528;-61
2022/03/29 00:12:46;;;;;;;26.67;13.75;;;;;;;;;;4936854;29;20188;-62
2022/03/29 00:15:12;;;;;;;23.75;12.57;;;;;;;;;;4937169;29;20173;-62
2022/03/29 00:17:38;;;;;;;23.98;11.90;;;;;;;;;;4940804;29;20601;-62
2022/03/29 00:20:04;;;;;;;26.27;12.60;;;;;;;;;;4944473;29;20214;-62
2022/03/29 00:22:30;;;;;;;23.35;12.98;;;;;;;;;;4944663;29;20183;-62
2022/03/29 00:24:56;;;;;;;23.33;12.15;;;;;;;;;;4944153;29;20201;-62
2022/03/29 00:27:23;;;;;;;25.23;11.98;;;;;;;;;;4943321;29;20196;-62
2022/03/29 00:29:48;;;;;;;25.10;12.45;;;;;;;;;;4946677;29;20177;-62
2022/03/29 00:32:15;;;;;;;25.13;12.40;;;;;;;;;;4948226;29;20192;-62
2022/03/29 00:34:42;;;;;;;20.38;11.35;;;;;;;;;;4948346;29;20189;-63
2022/03/29 00:37:08;;;;;;;27.05;12.32;;;;;;;;;;4948897;29;20708;-61
2022/03/29 00:39:34;;;;;;;21.23;10.80;;;;;;;;;;4950034;29;20637;-62
2022/03/29 00:42:00;;;;;;;18.92;10.40;;;;;;;;;;4951736;29;20176;-62
2022/03/29 00:44:31;;;;;;;22.00;11.57;;;;;;;;;;4950055;29;20177;-62
2022/03/29 00:46:58;;;;;;;24.15;11.55;;;;;;;;;;4945716;29;20169;-62
2022/03/29 00:49:23;;;;;;;21.33;11.30;;;;;;;;;;4950448;29;20192;-62
2022/03/29 00:51:49;;;;;;;21.25;11.27;;;;;;;;;;4949215;29;20254;-62
2022/03/29 00:54:15;;;;;;;18.63;11.25;;;;;;;;;;4948479;29;20232;-62
2022/03/29 00:56:41;;;;;;;22.58;10.52;;;;;;;;;;4946124;29;20177;-61
2022/03/29 00:59:07;;;;;;;18.85;10.20;;;;;;;;;;4946480;29;20638;-62
2022/03/29 01:01:34;;;;;;;22.02;11.10;;;;;;;;;;4948681;29;20176;-62
2022/03/29 01:04:00;;;;;;;24.75;10.50;;;;;;;;;;4949032;29;20169;-62
2022/03/29 01:06:26;;;;;;;17.85;10.07;;;;;;;;;;4953336;29;20170;-62
2022/03/29 01:08:52;;;;;;;17.58;9.80;;;;;;;;;;4945581;29;20191;-62
2022/03/29 01:11:18;;;;;;;22.75;9.93;;;;;;;;;;4939004;29;20636;-62
2022/03/29 01:13:44;;;;;;;17.60;10.18;;;;;;;;;;4940686;29;20642;-62
2022/03/29 01:18:54;;;;;;;19.98;10.70;;;;;;;;;;4939668;29;20546;-61
2022/03/29 01:21:20;;;;;;;17.00;9.63;;;;;;;;;;4939713;29;20170;-62
2022/03/29 01:23:47;;;;;;;18.65;9.18;;;;;;;;;;4939345;29;20165;-61
2022/03/29 01:26:15;;;;;;;15.23;9.77;;;;;;;;;;4939324;29;20316;-61
2022/03/29 01:28:41;;;;;;;21.30;9.57;;;;;;;;;;4939138;29;20157;-62
2022/03/29 01:31:07;;;;;;;21.55;9.10;;;;;;;;;;4939075;29;20501;-62
2022/03/29 01:33:33;;;;;;;18.13;9.25;;;;;;;;;;4938974;29;20173;-62
2022/03/29 01:36:00;;;;;;;19.05;8.48;;;;;;;;;;4939104;29;20196;-62
2022/03/29 01:38:26;;;;;;;17.10;9.00;;;;;;;;;;4938927;29;20169;-62
2022/03/29 01:40:52;;;;;;;24.40;8.38;;;;;;;;;;4939224;29;20224;-62
2022/03/29 01:43:18;;;;;;;22.63;9.05;;;;;;;;;;4938981;29;20555;-62
2022/03/29 01:45:44;;;;;;;19.45;8.63;;;;;;;;;;4938859;29;20257;-62
2022/03/29 01:48:10;;;;;;;16.02;7.95;;;;;;;;;;4938687;29;20180;-62
2022/03/29 01:50:36;;;;;;;19.35;8.73;;;;;;;;;;4938811;29;20240;-62
2022/03/29 01:53:02;;;;;;;18.50;8.10;;;;;;;;;;4938692;29;20203;-62
2022/03/29 01:55:28;;;;;;;14.35;6.28;;;;;;;;;;4938981;29;20173;-62
2022/03/29 01:57:53;;;;;;;17.83;7.82;;;;;;;;;;4938939;29;20183;-62
2022/03/29 02:00:32;;;;;;;20.83;7.63;;;;;;;;;;4938553;29;20200;-61
2022/03/29 02:02:58;;;;;;;16.05;6.85;;;;;;;;;;4938879;29;20168;-63
2022/03/29 02:05:25;;;;;;;13.98;5.55;;;;;;;;;;4938715;29;20188;-62
2022/03/29 02:07:51;;;;;;;16.67;6.55;;;;;;;;;;4938751;29;20248;-61
2022/03/29 02:10:20;;;;;;;15.10;6.22;;;;;;;;;;4938622;29;20199;-62
2022/03/29 02:12:47;;;;;;;22.15;5.93;;;;;;;;;;4938535;29;20185;-62
2022/03/29 02:15:13;;;;;;;17.20;4.88;;;;;;;;;;4938305;29;20493;-62
2022/03/29 02:17:39;;;;;;;19.73;5.13;;;;;;;;;;4938309;29;20609;-62
2022/03/29 02:20:06;;;;;;;13.73;4.88;;;;;;;;;;4938246;29;20228;-62
2022/03/29 02:22:32;;;;;;;12.43;4.82;;;;;;;;;;4938481;29;20177;-62
2022/03/29 02:24:58;;;;;;;13.13;4.00;;;;;;;;;;4938060;29;20160;-62
2022/03/29 02:27:24;;;;;;;14.75;4.00;;;;;;;;;;4938097;29;20667;-63
2022/03/29 02:29:50;;;;;;;17.35;3.95;;;;;;;;;;4938282;29;20294;-62
2022/03/29 02:32:16;;;;;;;10.85;3.10;;;;;;;;;;4938009;29;20318;-62
2022/03/29 02:34:42;;;;;;;11.88;3.13;;;;;;;;;;4938215;29;20177;-62
2022/03/29 02:37:08;;;;;;;15.82;3.15;;;;;;;;;;4939837;29;20176;-61
2022/03/29 02:39:34;;;;;;;19.67;3.92;;;;;;;;;;4939385;29;20208;-62
2022/03/29 02:42:00;;;;;;;15.85;3.50;;;;;;;;;;4939588;29;20164;-61
2022/03/29 02:44:26;;;;;;;17.33;3.35;;;;;;;;;;4939168;29;20657;-61
2022/03/29 02:46:52;;;;;;;19.58;3.47;;;;;;;;;;4939157;29;20253;-61
2022/03/29 02:49:17;;;;;;;12.60;3.40;;;;;;;;;;4939097;29;20459;-61
2022/03/29 02:51:43;;;;;;;11.82;2.97;;;;;;;;;;4939622;29;20248;-62
2022/03/29 02:54:09;;;;;;;16.88;3.40;;;;;;;;;;4939570;29;20169;-61
2022/03/29 02:56:35;;;;;;;13.35;2.92;;;;;;;;;;4939173;29;20489;-61
2022/03/29 02:59:01;;;;;;;10.18;2.70;;;;;;;;;;4939566;29;20625;-61
2022/03/29 03:01:30;;;;;;;16.20;3.28;;;;;;;;;;4939524;29;20172;-61
2022/03/29 03:03:57;;;;;;;16.52;3.38;;;;;;;;;;4939621;29;20173;-61
2022/03/29 03:06:23;;;;;;;13.98;3.70;;;;;;;;;;4939500;29;20173;-62
2022/03/29 03:08:49;;;;;;;20.10;3.70;;;;;;;;;;4939609;29;20236;-61
2022/03/29 03:11:15;;;;;;;18.50;3.50;;;;;;;;;;4939332;29;20252;-61
2022/03/29 03:13:41;;;;;;;14.82;4.18;;;;;;;;;;4939451;29;20569;-62
2022/03/29 03:16:07;;;;;;;18.13;3.92;;;;;;;;;;4938999;29;20183;-61
2022/03/29 03:18:33;;;;;;;12.50;3.08;;;;;;;;;;4938150;29;20225;-61
2022/03/29 03:20:59;;;;;;;9.05;2.35;;;;;;;;;;4938728;29;20201;-62
2022/03/29 03:23:25;;;;;;;16.10;3.35;;;;;;;;;;4939264;29;20575;-62
2022/03/29 03:25:51;;;;;;;15.20;3.55;;;;;;;;;;4938770;29;20224;-62
2022/03/29 03:28:17;;;;;;;16.92;2.88;;;;;;;;;;4939056;29;20606;-62
2022/03/29 03:30:43;;;;;;;17.92;3.03;;;;;;;;;;4938862;29;20173;-61
2022/03/29 03:33:09;;;;;;;13.15;3.25;;;;;;;;;;4938901;29;20227;-61
2022/03/29 03:35:35;;;;;;;10.10;3.35;;;;;;;;;;4938750;29;20212;-62
2022/03/29 03:38:01;;;;;;;15.88;3.03;;;;;;;;;;4938631;29;20176;-62
2022/03/29 03:40:27;;;;;;;16.05;3.13;;;;;;;;;;4938823;29;20538;-61
2022/03/29 03:42:53;;;;;;;12.35;2.83;;;;;;;;;;4938537;29;20173;-62
2022/03/29 03:45:19;;;;;;;16.35;2.65;;;;;;;;;;4938774;29;20204;-62
2022/03/29 03:47:46;;;;;;;14.00;3.20;;;;;;;;;;4938977;29;20576;-61
2022/03/29 03:50:12;;;;;;;12.05;2.50;;;;;;;;;;4938762;29;20169;-61
2022/03/29 03:52:38;;;;;;;17.25;3.17;;;;;;;;;;4938026;29;20264;-61
2022/03/29 03:55:05;;;;;;;17.05;2.72;;;;;;;;;;4937743;29;20235;-61
2022/03/29 03:57:31;;;;;;;19.25;3.45;;;;;;;;;;4938504;29;20517;-61
2022/03/29 03:59:57;;;;;;;13.38;2.83;;;;;;;;;;4938464;29;20201;-61
2022/03/29 04:02:23;;;;;;;12.35;2.80;;;;;;;;;;4938451;29;20165;-61
2022/03/29 04:04:49;;;;;;;10.82;2.30;;;;;;;;;;4939160;29;20173;-61
2022/03/29 04:07:15;;;;;;;14.50;2.85;;;;;;;;;;4938923;29;20485;-63
2022/03/29 04:09:41;;;;;;;18.55;3.53;;;;;;;;;;4939151;29;20203;-61
2022/03/29 04:12:07;;;;;;;17.00;3.35;;;;;;;;;;4938463;29;20169;-61
2022/03/29 04:14:33;;;;;;;19.88;2.78;;;;;;;;;;4939211;29;20504;-61
2022/03/29 04:17:00;;;;;;;11.43;2.65;;;;;;;;;;4939422;29;20173;-61
2022/03/29 04:19:25;;;;;;;12.10;2.65;;;;;;;;;;4938531;29;20676;-62
2022/03/29 04:21:52;;;;;;;14.18;3.25;;;;;;;;;;4938732;29;20165;-61
2022/03/29 04:24:17;;;;;;;15.25;2.83;;;;;;;;;;4938220;29;20568;-61
2022/03/29 04:26:43;;;;;;;11.93;2.83;;;;;;;;;;4938432;29;20169;-61
2022/03/29 04:29:09;;;;;;;15.30;3.28;;;;;;;;;;4938151;29;20173;-61
2022/03/29 04:31:35;;;;;;;10.55;2.55;;;;;;;;;;4938398;29;20180;-61
2022/03/29 04:34:02;;;;;;;12.88;2.83;;;;;;;;;;4938169;29;20172;-61
2022/03/29 04:36:29;;;;;;;15.77;2.90;;;;;;;;;;4938076;29;20165;-61
2022/03/29 04:38:57;;;;;;;13.57;2.90;;;;;;;;;;4938361;29;20265;-61
2022/03/29 04:41:23;;;;;;;11.23;2.70;;;;;;;;;;4938637;29;20252;-61
2022/03/29 04:43:49;;;;;;;12.63;3.17;;;;;;;;;;4938259;29;20575;-61
2022/03/29 04:46:15;;;;;;;11.45;3.03;;;;;;;;;;4937863;29;20173;-61
2022/03/29 04:48:41;;;;;;;9.68;2.53;;;;;;;;;;4940756;29;20165;-61
2022/03/29 04:51:07;;;;;;;13.40;3.42;;;;;;;;;;4941663;29;20176;-61
2022/03/29 04:53:33;;;;;;;12.70;2.72;;;;;;;;;;4941591;29;20180;-61
2022/03/29 04:55:59;;;;;;;15.07;3.17;;;;;;;;;;4941658;29;20212;-61
2022/03/29 04:58:25;;;;;;;16.00;2.90;;;;;;;;;;4941357;29;20209;-62
2022/03/29 05:00:52;;;;;;;11.80;2.30;;;;;;;;;;4941825;29;20228;-61
2022/03/29 05:03:17;;;;;;;9.70;2.88;;;;;;;;;;4941309;29;20165;-61
2022/03/29 05:05:44;;;;;;;7.75;2.50;;;;;;;;;;4942208;29;20320;-61
2022/03/29 05:08:10;;;;;;;15.15;2.83;;;;;;;;;;4941918;29;20275;-61
2022/03/29 05:10:36;;;;;;;13.68;2.78;;;;;;;;;;4942053;29;20173;-61
2022/03/29 05:13:02;;;;;;;14.98;2.85;;;;;;;;;;4941928;29;20181;-61
2022/03/29 05:15:27;;;;;;;12.20;2.40;;;;;;;;;;4941793;29;20172;-61
2022/03/29 05:17:54;;;;;;;13.35;2.50;;;;;;;;;;4941433;29;20169;-61
2022/03/29 05:20:19;;;;;;;15.25;2.92;;;;;;;;;;4941810;29;20189;-61
2022/03/29 05:22:47;;;;;;;16.58;2.50;;;;;;;;;;4941297;29;20252;-61
2022/03/29 05:25:14;;;;;;;14.57;2.65;;;;;;;;;;4941127;29;20173;-61
2022/03/29 05:27:40;;;;;;;13.20;2.83;;;;;;;;;;4940297;29;20602;-60
2022/03/29 05:30:07;;;;;;;15.60;2.80;;;;;;;;;;4940603;29;20411;-61
2022/03/29 05:32:33;;;;;;;12.13;2.53;;;;;;;;;;4940858;29;20177;-61
2022/03/29 05:34:59;;;;;;;8.48;2.20;;;;;;;;;;4940730;29;20256;-61
2022/03/29 05:37:25;;;;;;;14.65;2.70;;;;;;;;;;4940415;29;20316;-60
2022/03/29 05:39:51;;;;;;;14.43;2.90;;;;;;;;;;4940442;29;20226;-60
2022/03/29 05:42:17;;;;;;;12.90;2.50;;;;;;;;;;4939718;29;20177;-61
2022/03/29 05:44:43;;;;;;;13.63;2.70;;;;;;;;;;4940990;29;20252;-61
2022/03/29 05:49:54;;;;;;;9.48;2.50;;;;;;;;;;4942751;29;20168;-61
2022/03/29 05:52:22;;;;;;;9.52;2.38;;;;;;;;;;4946828;29;20169;-61
2022/03/29 05:54:48;;;;;;;9.63;2.42;;;;;;;;;;4940302;29;20204;-61
2022/03/29 05:57:15;;;;;;;11.82;2.90;;;;;;;;;;4940349;29;20696;-61
2022/03/29 05:59:41;;;;;;;10.95;2.17;;;;;;;;;;4939784;29;20188;-61
2022/03/29 06:02:08;;;;;;;12.32;2.65;;;;;;;;;;4940141;29;20606;-61
2022/03/29 06:04:35;;;;;;;4.75;2.13;;;;;;;;;;4940736;29;20389;-59
2022/03/29 06:07:01;;;;;;;11.63;3.10;;;;;;;;;;4939805;29;20635;-61
2022/03/29 06:09:27;;;;;;;15.63;2.92;;;;;;;;;;4939897;29;20240;-61
2022/03/29 06:11:53;;;;;;;11.45;2.40;;;;;;;;;;4939438;29;20517;-60
2022/03/29 06:14:20;;;;;;;14.32;2.70;;;;;;;;;;4939677;29;20173;-62
2022/03/29 06:16:46;;;;;;;12.18;2.78;;;;;;;;;;4939147;29;20624;-62
2022/03/29 06:19:12;;;;;;;9.70;3.00;;;;;;;;;;4939715;29;20204;-61
2022/03/29 06:21:39;;;;;;;14.27;2.63;;;;;;;;;;4939470;29;20180;-62
2022/03/29 06:24:05;;;;;;;11.82;2.58;;;;;;;;;;4939413;29;20179;-62
2022/03/29 06:26:31;;;;;;;16.27;2.65;;;;;;;;;;4939067;29;20223;-62
2022/03/29 06:28:58;;;;;;;8.68;2.28;;;;;;;;;;4939347;29;20203;-62
2022/03/29 06:31:24;;;;;;;12.45;2.15;;;;;;;;;;4939823;29;20207;-62
2022/03/29 06:33:50;;;;;;;13.25;2.53;;;;;;;;;;4939945;29;20165;-62
2022/03/29 06:36:16;;;;;;;12.65;2.00;;;;;;;;;;4939615;29;20256;-62
2022/03/29 06:38:43;;;;;;;8.48;1.95;;;;;;;;;;4940078;29;20248;-62
2022/03/29 06:41:10;;;;;;;8.85;2.13;;;;;;;;;;4939339;29;20181;-61
2022/03/29 06:43:36;;;;;;;13.82;2.83;;;;;;;;;;4938909;29;20169;-61
2022/03/29 06:46:03;;;;;;;10.65;2.20;;;;;;;;;;4939087;29;20204;-62
2022/03/29 06:48:29;;;;;;;9.98;2.92;;;;;;;;;;4938956;29;20244;-62
2022/03/29 06:50:55;;;;;;;12.18;2.25;;;;;;;;;;4938957;29;20212;-62
2022/03/29 06:53:21;;;;;;;12.45;2.55;;;;;;;;;;4939194;29;20177;-62
2022/03/29 06:55:47;;;;;;;10.00;2.53;;;;;;;;;;4938891;29;20313;-62
2022/03/29 06:58:13;;;;;;;12.38;2.20;;;;;;;;;;4938993;29;20610;-62
2022/03/29 07:00:39;;;;;;;10.05;2.30;;;;;;;;;;4938667;29;20216;-62
2022/03/29 07:03:05;;;;;;;17.35;3.03;;;;;;;;;;4938954;29;20196;-62
2022/03/29 07:05:31;;;;;;;9.98;2.30;;;;;;;;;;4938445;29;20165;-63
2022/03/29 07:07:57;;;;;;;13.45;2.00;;;;;;;;;;4938592;29;20192;-62
2022/03/29 07:13:08;;;;;;;8.80;1.83;;;;;;;;;;4937649;29;20180;-60
2022/03/29 07:15:34;;;;;;;8.43;1.90;;;;;;;;;;4943181;23;20533;-61
2022/03/29 07:17:59;;;;;;;9.68;1.83;;;;;;;;;;4944099;23;20248;-62
2022/03/29 07:20:25;;;;;;;12.93;2.20;;;;;;;;;;4937032;29;20192;-62
2022/03/29 07:22:52;;;;;;;10.10;2.38;;;;;;;;;;4937020;29;20161;-62
2022/03/29 07:25:19;;;;;;;7.78;2.35;;;;;;;;;;4936503;29;20542;-62
2022/03/29 07:27:45;;;;;;;9.75;2.13;;;;;;;;;;4937067;29;20196;-61
2022/03/29 07:30:12;;;;;;;9.35;2.50;;;;;;;;;;4937365;29;20235;-62
2022/03/29 07:32:55;;;;;;;10.07;2.10;;;;;;;;;;4936926;29;20173;-62
2022/03/29 07:35:22;;;;;;;11.85;2.42;;;;;;;;;;4937188;29;20569;-62
2022/03/29 07:37:48;;;;;;;11.77;2.40;;;;;;;;;;4937607;29;20180;-61
2022/03/29 07:40:15;;;;;;;8.43;1.95;;;;;;;;;;4938312;29;20633;-62
2022/03/29 07:42:41;;;;;;;8.82;2.22;;;;;;;;;;4939263;29;20611;-61
2022/03/29 07:45:08;;;;;;;7.30;2.22;;;;;;;;;;4938038;29;20174;-62
2022/03/29 07:47:34;;;;;;;10.23;2.22;;;;;;;;;;4937592;29;20165;-62
2022/03/29 07:50:04;;;;;;;10.70;2.60;;;;;;;;;;4938475;29;20259;-61
2022/03/29 07:52:30;;;;;;;6.70;2.30;;;;;;;;;;4938644;29;20605;-62
2022/03/29 07:54:56;;;;;;;9.77;2.15;;;;;;;;;;4938644;29;20176;-61
2022/03/29 07:57:22;;;;;;;10.18;2.42;;;;;;;;;;4937285;29;20234;-63
2022/03/29 07:59:48;;;;;;;11.10;2.10;;;;;;;;;;4937200;29;20507;-62
2022/03/29 08:02:14;;;;;;;8.18;2.40;;;;;;;;;;4937090;29;20179;-62
2022/03/29 08:04:40;;;;;;;6.63;2.03;;;;;;;;;;4936791;29;20586;-62
2022/03/29 08:07:08;;;;;;;11.52;1.90;;;;;;;;;;4936978;29;20172;-62
2022/03/29 08:09:34;;;;;;;11.63;2.40;;;;;;;;;;4937567;29;20562;-62
2022/03/29 08:12:00;;;;;;;8.32;2.63;;;;;;;;;;4937540;29;20211;-61
2022/03/29 08:14:26;;;;;;;11.88;2.47;;;;;;;;;;4939299;29;20176;-61
2022/03/29 08:16:56;;;;;;;10.73;2.28;;;;;;;;;;4938650;29;20645;-61
2022/03/29 08:19:23;;;;;;;9.52;2.00;;;;;;;;;;4938221;29;20199;-62
2022/03/29 08:21:49;;;;;;;9.05;2.30;;;;;;;;;;4939005;29;20169;-63
2022/03/29 08:24:16;;;;;;;8.77;1.70;;;;;;;;;;4942952;29;20168;-62
2022/03/29 08:26:42;;;;;;;9.02;1.75;;;;;;;;;;4942914;29;20179;-61
2022/03/29 08:29:08;;;;;;;9.32;2.50;;;;;;;;;;4943572;29;20165;-62
2022/03/29 08:31:34;;;;;;;9.82;2.30;;;;;;;;;;4943659;29;20175;-61
2022/03/29 08:34:01;;;;;;;11.10;2.55;;;;;;;;;;4943778;29;20570;-62
2022/03/29 08:36:27;;;;;;;16.02;2.50;;;;;;;;;;4943486;29;20263;-61
2022/03/29 08:38:52;;;;;;;7.60;1.80;;;;;;;;;;4944572;29;20231;-61
2022/03/29 08:41:19;;;;;;;11.07;2.22;;;;;;;;;;4944022;29;20192;-62
2022/03/29 08:43:45;;;;;;;9.77;2.25;;;;;;;;;;4944793;29;20168;-62
2022/03/29 08:46:11;;;;;;;8.25;2.05;;;;;;;;;;4943715;29;20180;-63
2022/03/29 08:48:37;;;;;;;11.07;2.47;;;;;;;;;;4943825;29;20408;-62
2022/03/29 08:51:04;;;;;;;8.38;2.75;;;;;;;;;;4945624;29;20533;-62
2022/03/29 08:53:30;;;;;;;13.93;2.47;;;;;;;;;;4945426;29;20374;-62
2022/03/29 08:55:57;;;;;;;9.27;2.60;;;;;;;;;;4942497;29;20413;-61
2022/03/29 08:58:24;;;;;;;7.97;2.05;;;;;;;;;;4943069;29;20173;-62
2022/03/29 09:00:50;;;;;;;11.57;2.50;;;;;;;;;;4943800;29;20192;-62
2022/03/29 09:03:17;;;;;;;12.20;2.25;;;;;;;;;;4943450;29;20159;-62
2022/03/29 09:05:43;;;;;;;9.68;2.35;;;;;;;;;;4943661;29;20179;-62
2022/03/29 09:08:09;;;;;;;8.00;2.65;;;;;;;;;;4943387;29;20169;-62
2022/03/29 09:10:41;;;;;;;5.13;1.55;;;;;;;;;;4944409;29;20196;-62
2022/03/29 09:13:22;;;;;;;10.43;2.08;;;;;;;;;;4943731;29;20544;-62
2022/03/29 09:15:48;;;;;;;8.98;2.03;;;;;;;;;;4944318;29;20169;-62
2022/03/29 09:18:14;;;;;;;6.95;2.10;;;;;;;;;;4944310;29;20254;-63
2022/03/29 09:20:40;;;;;;;8.35;2.55;;;;;;;;;;4943655;29;20706;-63
2022/03/29 09:23:12;;;;;;;8.15;1.80;;;;;;;;;;4943815;29;20157;-63
2022/03/29 09:25:39;;;;;;;6.40;1.98;;;;;;;;;;4943491;29;20142;-62
2022/03/29 09:28:06;;;;;;;12.30;2.78;;;;;;;;;;4942514;29;20495;-62
2022/03/29 09:30:39;;;;;;;8.48;2.67;;;;;;;;;;4942658;29;20173;-62
2022/03/29 09:33:07;;;;;;;7.03;2.05;;;;;;;;;;4941180;29;20161;-62
2022/03/29 09:35:33;;;;;;;10.52;2.40;;;;;;;;;;4940005;29;20177;-62
2022/03/29 09:38:01;;;;;;;8.38;2.30;;;;;;;;;;4939531;29;20504;-62
2022/03/29 09:40:34;;;;;;;10.52;2.17;;;;;;;;;;4939926;29;20566;-62
2022/03/29 09:43:13;;;;;;;9.60;2.40;;;;;;;;;;4939762;29;20169;-62
2022/03/29 09:45:40;;;;;;;10.32;1.88;;;;;;;;;;4939915;29;20153;-62
2022/03/29 09:48:26;;;;;;;9.52;2.05;;;;;;;;;;4939774;29;20180;-61
2022/03/29 09:50:56;;;;;;;9.38;2.35;;;;;;;;;;4939390;29;20808;-62
2022/03/29 09:53:41;;;;;;;11.80;2.53;;;;;;;;;;4941230;29;20561;-62
2022/03/29 09:56:08;;;;;;;9.02;2.10;;;;;;;;;;4948040;29;20161;-62
2022/03/29 09:58:34;;;;;;;10.20;2.42;;;;;;;;;;4951002;29;20466;-62
2022/03/29 10:01:01;;;;;;;8.10;2.13;;;;;;;;;;4949381;29;20205;-62
2022/03/29 10:03:27;;;;;;;11.68;2.38;;;;;;;;;;4948916;29;20180;-62
2022/03/29 10:06:01;;;;;;;10.27;2.38;;;;;;;;;;4949256;29;20222;-62
2022/03/29 10:11:16;;;;;;;8.50;2.10;;;;;;;;;;4952714;29;20246;-62
2022/03/29 10:13:42;;;;;;;10.75;2.13;;;;;;;;;;4953493;29;20177;-62
2022/03/29 10:16:13;;;;;;;11.95;1.85;;;;;;;;;;4954835;29;20169;-62
2022/03/29 10:18:40;;;;;;;10.05;2.67;;;;;;;;;;4955526;29;20219;-62
2022/03/29 10:21:07;;;;;;;10.27;2.30;;;;;;;;;;4957955;29;20193;-63
2022/03/29 10:23:34;;;;;;;7.95;2.20;;;;;;;;;;4958942;29;20159;-62
2022/03/29 10:26:00;;;;;;;9.60;2.55;;;;;;;;;;4958317;29;20149;-62
2022/03/29 10:28:27;;;;;;;8.70;1.98;;;;;;;;;;4945194;29;20597;-62
2022/03/29 10:30:53;;;;;;;10.25;2.13;;;;;;;;;;4941614;29;20239;-63
2022/03/29 10:33:20;;;;;;;9.35;2.28;;;;;;;;;;4940481;29;20669;-63
2022/03/29 10:36:02;;;;;;;10.30;2.28;;;;;;;;;;4941188;29;20177;-63
2022/03/29 10:38:46;;;;;;;13.85;2.60;;;;;;;;;;4941211;29;20617;-64
2022/03/29 10:41:30;;;;;;;10.98;3.30;;;;;;;;;;4938105;29;20481;-63
2022/03/29 10:44:04;;;;;;;10.27;2.78;;;;;;;;;;4938650;29;20562;-62
2022/03/29 10:46:39;;;;;;;10.48;2.00;;;;;;;;;;4937922;29;20567;-62
2022/03/29 10:49:20;;;;;;;11.98;2.90;;;;;;;;;;4938907;29;20501;-62
2022/03/29 10:51:46;;;;;;;10.52;2.25;;;;;;;;;;4938983;29;20168;-63
2022/03/29 10:54:27;;;;;;;12.88;3.20;;;;;;;;;;4937591;29;20227;-62
2022/03/29 10:56:59;;;;;;;12.48;1.90;;;;;;;;;;4937738;29;20162;-63
2022/03/29 10:59:26;;;;;;;9.35;1.88;;;;;;;;;;4937921;29;20203;-61
2022/03/29 11:02:12;;;;;;;11.25;2.00;;;;;;;;;;4938072;29;20179;-62
2022/03/29 11:04:58;;;;;;;9.43;2.00;;;;;;;;;;4938260;29;20263;-63
2022/03/29 11:07:24;;;;;;;6.57;1.88;;;;;;;;;;4938396;29;20173;-61
2022/03/29 11:10:06;;;;;;;5.78;2.05;;;;;;;;;;4937443;29;20180;-62
2022/03/29 11:12:37;;;;;;;9.38;1.60;;;;;;;;;;4937640;29;20173;-61
2022/03/29 11:15:23;;;;;;;11.88;2.60;;;;;;;;;;4937722;29;20179;-62
2022/03/29 11:17:48;;;;;;;9.00;1.75;;;;;;;;;;4937720;29;20188;-61
2022/03/29 11:20:33;;;;;;;9.88;2.10;;;;;;;;;;4937480;29;20215;-61
2022/03/29 11:23:00;;;;;;;7.05;1.95;;;;;;;;;;4937607;29;20169;-61
2022/03/29 11:25:26;;;;;;;6.25;1.63;;;;;;;;;;4937121;29;20189;-60
2022/03/29 11:27:52;;;;;;;7.82;1.92;;;;;;;;;;4937340;29;20172;-60
2022/03/29 11:30:18;;;;;;;12.60;2.67;;;;;;;;;;4937193;29;20540;-62
2022/03/29 11:32:45;;;;;;;9.02;2.33;;;;;;;;;;4937029;29;20658;-62
2022/03/29 11:35:12;;;;;;;8.77;2.22;;;;;;;;;;4937206;29;20204;-61
2022/03/29 11:37:43;;;;;;;12.68;2.78;;;;;;;;;;4937296;29;20173;-63
2022/03/29 11:40:10;;;;;;;9.38;2.15;;;;;;;;;;4937409;29;20196;-60
2022/03/29 11:42:44;;;;;;;7.70;2.00;;;;;;;;;;4937144;29;20285;-62
2022/03/29 11:45:11;;;;;;;9.48;2.05;;;;;;;;;;4937561;29;20252;-61
2022/03/29 11:47:38;;;;;;;7.57;1.75;;;;;;;;;;4937655;29;20173;-60
2022/03/29 11:50:04;;;;;;;8.60;2.10;;;;;;;;;;4938061;29;20173;-61
2022/03/29 11:52:33;;;;;;;11.57;2.28;;;;;;;;;;4937049;29;20741;-61
2022/03/29 11:55:00;;;;;;;11.02;2.65;;;;;;;;;;4946295;29;20641;-62
2022/03/29 11:57:27;;;;;;;11.30;2.20;;;;;;;;;;4947591;29;20177;-62
2022/03/29 11:59:54;;;;;;;8.40;2.13;;;;;;;;;;4947193;29;20196;-64
2022/03/29 12:02:22;;;;;;;9.90;2.10;;;;;;;;;;4949107;29;20184;-62
2022/03/29 12:04:48;;;;;;;11.45;2.00;;;;;;;;;;4948305;29;20161;-63
2022/03/29 12:07:14;;;;;;;6.55;1.77;;;;;;;;;;4950677;29;20180;-63
2022/03/29 12:09:45;;;;;;;13.02;1.60;;;;;;;;;;4949575;29;20657;-63
2022/03/29 12:12:11;;;;;;;7.68;1.80;;;;;;;;;;4949277;29;20188;-63
2022/03/29 12:14:37;;;;;;;10.18;2.10;;;;;;;;;;4949304;29;20426;-63
2022/03/29 12:17:04;;;;;;;8.52;1.98;;;;;;;;;;4954585;29;20188;-63
2022/03/29 12:19:31;;;;;;;6.07;1.65;;;;;;;;;;4954688;29;20272;-63
2022/03/29 12:22:02;;;;;;;6.68;1.85;;;;;;;;;;4952517;29;20175;-63
2022/03/29 12:24:35;;;;;;;4.50;1.33;;;;;;;;;;4952211;29;20216;-65
2022/03/29 12:27:04;;;;;;;7.90;1.77;;;;;;;;;;4950780;29;20173;-63
2022/03/29 12:29:30;;;;;;;9.15;2.08;;;;;;;;;;4943297;29;20559;-63
2022/03/29 12:31:56;;;;;;;10.23;2.00;;;;;;;;;;4937344;29;20255;-63
2022/03/29 12:34:24;;;;;;;9.98;1.85;;;;;;;;;;4936195;29;20180;-64
2022/03/29 12:36:53;;;;;;;8.18;1.63;;;;;;;;;;4936335;29;20613;-63
2022/03/29 12:39:20;;;;;;;7.53;1.90;;;;;;;;;;4936475;29;20205;-63
2022/03/29 12:41:48;;;;;;;8.55;2.50;;;;;;;;;;4935889;29;20405;-63
2022/03/29 12:44:16;;;;;;;5.47;1.50;;;;;;;;;;4936497;29;20601;-63
2022/03/29 12:46:43;;;;;;;7.72;1.70;;;;;;;;;;4936094;29;20608;-63
2022/03/29 12:49:10;;;;;;;4.35;1.48;;;;;;;;;;4935083;29;20277;-63
2022/03/29 12:51:37;;;;;;;5.22;1.73;;;;;;;;;;4936141;29;20205;-63
2022/03/29 12:54:05;;;;;;;7.70;1.67;;;;;;;;;;4935972;29;20173;-63
2022/03/29 12:56:32;;;;;;;8.82;1.90;;;;;;;;;;4935453;29;20413;-64
2022/03/29 12:58:58;;;;;;;3.95;1.13;;;;;;;;;;4935948;29;20169;-64
2022/03/29 13:01:26;;;;;;;3.65;1.20;;;;;;;;;;4935982;29;20256;-63
2022/03/29 13:03:51;;;;;;;6.80;1.77;;;;;;;;;;4936001;29;20405;-63
2022/03/29 13:06:17;;;;;;;9.32;1.90;;;;;;;;;;4935519;29;20480;-64
2022/03/29 13:08:43;;;;;;;8.15;1.65;;;;;;;;;;4937186;29;20169;-64
2022/03/29 13:11:16;;;;;;;4.75;1.38;;;;;;;;;;4940026;29;20176;-64
2022/03/29 13:13:42;;;;;;;9.32;2.05;;;;;;;;;;4939626;29;20271;-64
2022/03/29 13:16:18;;;;;;;8.05;1.52;;;;;;;;;;4939452;29;20552;-64
2022/03/29 13:18:49;;;;;;;5.10;1.58;;;;;;;;;;4939773;29;20660;-63
2022/03/29 13:21:22;;;;;;;5.47;1.48;;;;;;;;;;4939670;29;20204;-64
2022/03/29 13:23:55;;;;;;;6.82;1.40;;;;;;;;;;4939752;29;20180;-63
2022/03/29 13:26:23;;;;;;;8.35;1.35;;;;;;;;;;4939625;29;20172;-63
2022/03/29 13:28:49;;;;;;;8.20;1.60;;;;;;;;;;4939760;29;20624;-63
2022/03/29 13:31:16;;;;;;;8.18;1.67;;;;;;;;;;4939525;29;20185;-63
2022/03/29 13:33:42;;;;;;;5.90;1.30;;;;;;;;;;4940298;29;20555;-63
2022/03/29 13:36:09;;;;;;;5.40;1.52;;;;;;;;;;4939172;29;20165;-62
2022/03/29 13:38:35;;;;;;;5.63;1.40;;;;;;;;;;4939537;29;20168;-63
2022/03/29 13:41:01;;;;;;;4.72;1.38;;;;;;;;;;4939353;29;20556;-63
2022/03/29 13:43:28;;;;;;;3.40;1.20;;;;;;;;;;4939581;29;20478;-61
2022/03/29 13:45:54;;;;;;;5.80;1.40;;;;;;;;;;4939404;29;20215;-62
2022/03/29 13:48:20;;;;;;;3.58;0.98;;;;;;;;;;4939557;29;20228;-62
2022/03/29 13:50:45;;;;;;;4.65;1.08;;;;;;;;;;4938913;29;20541;-62
2022/03/29 13:53:13;;;;;;;4.07;1.27;;;;;;;;;;4939045;29;20255;-62
2022/03/29 13:55:39;;;;;;;3.15;1.20;;;;;;;;;;4939041;29;20231;-63
2022/03/29 13:58:06;;;;;;;5.30;1.67;;;;;;;;;;4939097;29;20736;-63
2022/03/29 14:00:32;;;;;;;4.28;1.50;;;;;;;;;;4938991;29;20205;-64
2022/03/29 14:02:59;;;;;;;3.60;1.48;;;;;;;;;;4938815;29;20184;-64
2022/03/29 14:05:27;;;;;;;4.60;1.80;;;;;;;;;;4938976;29;20240;-64
2022/03/29 14:07:53;;;;;;;6.57;1.58;;;;;;;;;;4939071;29;20184;-64
2022/03/29 14:10:19;;;;;;;8.35;1.55;;;;;;;;;;4938789;29;20620;-64
2022/03/29 14:12:44;;;;;;;8.23;1.50;;;;;;;;;;4938970;29;20181;-64
2022/03/29 14:15:10;;;;;;;5.95;1.60;;;;;;;;;;4938575;29;20197;-64
2022/03/29 14:17:36;;;;;;;4.72;1.27;;;;;;;;;;4939052;29;20616;-64
2022/03/29 14:20:03;;;;;;;5.95;1.70;;;;;;;;;;4937650;29;20688;-64
2022/03/29 14:22:32;;;;;;;7.05;1.67;;;;;;;;;;4938443;29;20180;-64
2022/03/29 14:24:58;;;;;;;8.50;1.80;;;;;;;;;;4938765;29;20193;-64
2022/03/29 14:27:24;;;;;;;5.82;1.45;;;;;;;;;;4937842;29;20211;-63
2022/03/29 14:29:50;;;;;;;5.20;1.60;;;;;;;;;;4938756;29;20177;-64
2022/03/29 14:32:16;;;;;;;6.70;1.50;;;;;;;;;;4938517;29;20265;-64
2022/03/29 14:34:43;;;;;;;7.40;1.65;;;;;;;;;;4938689;29;20173;-64
2022/03/29 14:37:09;;;;;;;6.93;2.33;;;;;;;;;;4938381;29;20177;-64
2022/03/29 14:39:35;;;;;;;6.88;1.95;;;;;;;;;;4938134;29;20222;-64
2022/03/29 14:42:01;;;;;;;5.63;1.35;;;;;;;;;;4938120;29;20176;-64
2022/03/29 14:44:27;;;;;;;5.60;1.55;;;;;;;;;;4938105;29;20173;-63